Terminal Aerodrome Forecast
Issued by NWS

Home | Current Version | Previous Version | Text Only | Print | Product List | Glossary On
Versions: 1 2 3 4 5 6 7 8 9 10 11 12 13 14 15 16 17 18 19
000
FTUS43 KFGF 251136
TAFBJI
TAF
KBJI 251136Z 2512/2612 33009KT 3SM BR OVC003
     FM251400 35010KT P6SM OVC003
     FM251900 36012KT P6SM OVC008
     FM260700 02013KT 5SM -PL OVC008
     FM261000 02012KT 3SM -SN OVC008=

USA.gov is the U.S. government's official web portal to all federal, state and local government web resources and services.